createdAt,value
2023-05-21T00:01:37.047Z,95096.38
2023-05-21T00:04:05.471Z,95093.00
2023-05-21T00:06:32.583Z,95090.66
2023-05-21T00:08:58.981Z,95082.28
2023-05-21T00:11:25.354Z,95081.81
2023-05-21T00:13:51.758Z,95088.34
2023-05-21T00:16:18.183Z,95083.03
2023-05-21T00:18:44.567Z,95083.97
2023-05-21T00:21:11.510Z,95084.38
2023-05-21T00:23:47.461Z,95082.06
2023-05-21T00:26:13.811Z,95078.38
2023-05-21T00:28:40.148Z,95071.09
2023-05-21T00:31:06.571Z,95072.81
2023-05-21T00:33:33.334Z,95073.44
2023-05-21T00:35:59.932Z,95073.38
2023-05-21T00:38:27.200Z,95074.69
2023-05-21T00:40:54.281Z,95077.84
2023-05-21T00:43:25.371Z,95081.25
2023-05-21T00:45:53.099Z,95079.16
2023-05-21T00:48:20.287Z,95075.94
2023-05-21T00:50:46.933Z,95077.53
2023-05-21T00:53:14.689Z,95076.63
2023-05-21T00:55:41.141Z,95068.97
2023-05-21T00:58:08.415Z,95072.28
2023-05-21T01:00:36.689Z,95063.94
2023-05-21T01:03:03.842Z,95061.91
2023-05-21T01:05:30.534Z,95064.63
2023-05-21T01:07:58.002Z,95064.44
2023-05-21T01:10:25.625Z,95070.09
2023-05-21T01:12:52.621Z,95062.03
2023-05-21T01:15:19.810Z,95065.25
2023-05-21T01:17:48.060Z,95069.78
2023-05-21T01:20:17.257Z,95058.91
2023-05-21T01:22:51.240Z,95052.84
2023-05-21T01:25:17.631Z,95056.47
2023-05-21T01:27:44.033Z,95051.25
2023-05-21T01:30:11.681Z,95053.06
2023-05-21T01:32:44.783Z,95058.41
2023-05-21T01:35:15.137Z,95055.69
2023-05-21T01:37:47.282Z,95054.00
2023-05-21T01:40:17.644Z,95058.63
2023-05-21T01:42:45.249Z,95052.47
2023-05-21T01:45:14.114Z,95056.31
2023-05-21T01:47:41.588Z,95050.97
2023-05-21T01:50:08.742Z,95038.09
2023-05-21T01:52:35.785Z,95049.56
2023-05-21T01:55:02.923Z,95052.69
2023-05-21T01:57:29.948Z,95043.44
2023-05-21T01:59:57.355Z,95047.47
2023-05-21T02:02:23.691Z,95051.91
2023-05-21T02:04:50.814Z,95044.47
2023-05-21T02:07:17.664Z,95048.28
2023-05-21T02:09:44.518Z,95046.28
2023-05-21T02:12:10.824Z,95042.03
2023-05-21T02:14:38.474Z,95039.03
2023-05-21T02:17:05.258Z,95039.22
2023-05-21T02:19:31.599Z,95043.44
2023-05-21T02:21:57.992Z,95044.66
2023-05-21T02:24:24.347Z,95043.34
2023-05-21T02:26:51.613Z,95052.19
2023-05-21T02:29:18.378Z,95047.66
2023-05-21T02:31:45.451Z,95046.16
2023-05-21T02:34:11.822Z,95045.44
2023-05-21T02:36:40.757Z,95044.22
2023-05-21T02:39:07.096Z,95043.44
2023-05-21T02:41:33.469Z,95036.47
2023-05-21T02:43:59.769Z,95038.31
2023-05-21T02:46:26.230Z,95041.13
2023-05-21T02:48:53.284Z,95053.16
2023-05-21T02:51:19.708Z,95045.00
2023-05-21T02:53:46.045Z,95049.56
2023-05-21T02:56:12.381Z,95048.25
2023-05-21T02:58:38.758Z,95047.53
2023-05-21T03:01:05.234Z,95043.00
2023-05-21T03:03:31.713Z,95052.53
2023-05-21T03:05:58.824Z,95051.00
2023-05-21T03:08:25.747Z,95053.41
2023-05-21T03:10:52.080Z,95040.94
2023-05-21T03:13:18.484Z,95054.94
2023-05-21T03:15:45.860Z,95050.91
2023-05-21T03:18:12.424Z,95041.16
2023-05-21T03:20:42.912Z,95039.25
2023-05-21T03:23:13.555Z,95037.88
2023-05-21T03:25:41.948Z,95040.66
2023-05-21T03:28:09.310Z,95037.94
2023-05-21T03:30:36.266Z,95045.56
2023-05-21T03:33:04.201Z,95053.00
2023-05-21T03:35:30.554Z,95040.59
2023-05-21T03:37:56.860Z,95042.22
2023-05-21T03:40:24.012Z,95045.00
2023-05-21T03:42:50.346Z,95036.06
2023-05-21T03:45:16.672Z,95041.50
2023-05-21T03:47:43.142Z,95045.00
2023-05-21T03:50:10.391Z,95041.78
2023-05-21T03:52:36.744Z,95039.59
2023-05-21T03:55:03.364Z,95035.09
2023-05-21T03:57:30.368Z,95033.72
2023-05-21T03:59:58.186Z,95030.72
2023-05-21T04:02:25.851Z,95028.47
2023-05-21T04:04:53.039Z,95020.78
2023-05-21T04:07:19.610Z,95028.25
2023-05-21T04:09:45.927Z,95025.22
2023-05-21T04:12:12.317Z,95034.66
2023-05-21T04:14:39.307Z,95026.91
2023-05-21T04:17:05.867Z,95027.81
2023-05-21T04:19:32.665Z,95031.84
2023-05-21T04:21:59.149Z,95033.66
2023-05-21T04:24:25.508Z,95030.25
2023-05-21T04:26:51.840Z,95026.03
2023-05-21T04:29:20.337Z,95028.84
2023-05-21T04:31:47.638Z,95028.16
2023-05-21T04:34:17.192Z,95029.84
2023-05-21T04:36:44.539Z,95032.19
2023-05-21T04:39:11.312Z,95037.19
2023-05-21T04:41:38.139Z,95031.84
2023-05-21T04:44:05.057Z,95027.50
2023-05-21T04:46:31.445Z,95030.13
2023-05-21T04:49:02.130Z,95022.38
2023-05-21T04:51:28.531Z,95030.59
2023-05-21T04:53:55.363Z,95034.69
2023-05-21T04:56:21.809Z,95025.50
2023-05-21T04:58:48.698Z,95022.84
2023-05-21T05:01:15.414Z,95023.13
2023-05-21T05:03:41.867Z,95017.34
2023-05-21T05:06:08.854Z,95017.56
2023-05-21T05:08:35.261Z,95011.84
2023-05-21T05:11:02.033Z,95013.09
2023-05-21T05:13:28.409Z,95006.06
2023-05-21T05:15:54.921Z,95012.72
2023-05-21T05:18:21.249Z,95023.66
2023-05-21T05:20:47.634Z,95020.66
2023-05-21T05:23:14.869Z,95013.66
2023-05-21T05:25:41.209Z,95012.88
2023-05-21T05:28:07.541Z,95006.50
2023-05-21T05:30:34.937Z,95008.63
2023-05-21T05:33:01.330Z,95009.28
2023-05-21T05:35:27.699Z,95016.03
2023-05-21T05:37:54.052Z,95016.06
2023-05-21T05:40:21.054Z,95017.81
2023-05-21T05:42:48.666Z,95014.63
2023-05-21T05:45:15.162Z,95015.41
2023-05-21T05:47:41.541Z,95011.72
2023-05-21T05:50:08.388Z,95013.31
2023-05-21T05:52:34.779Z,95009.59
2023-05-21T05:55:01.115Z,95005.88
2023-05-21T05:57:28.119Z,95007.59
2023-05-21T05:59:54.458Z,95008.25
2023-05-21T06:02:20.898Z,95004.34
2023-05-21T06:04:47.316Z,95005.25
2023-05-21T06:07:13.666Z,95001.22
2023-05-21T06:09:40.195Z,94995.84
2023-05-21T06:12:07.249Z,94998.72
2023-05-21T06:14:34.239Z,95002.59
2023-05-21T06:17:00.578Z,95000.94
2023-05-21T06:19:27.050Z,94992.75
2023-05-21T06:21:53.447Z,94994.25
2023-05-21T06:24:20.467Z,94993.13
2023-05-21T06:26:46.802Z,94988.66
2023-05-21T06:29:15.333Z,94991.09
2023-05-21T06:31:42.578Z,94984.66
2023-05-21T06:34:09.901Z,94987.69
2023-05-21T06:36:36.658Z,95000.47
2023-05-21T06:39:03.228Z,94998.88
2023-05-21T06:41:29.586Z,94992.78
2023-05-21T06:43:56.084Z,94990.13
2023-05-21T06:46:22.569Z,94993.28
2023-05-21T06:48:49.722Z,94991.84
2023-05-21T06:51:16.100Z,95001.94
2023-05-21T06:53:42.457Z,95006.69
2023-05-21T06:56:08.799Z,95001.81
2023-05-21T06:58:35.224Z,95002.13
2023-05-21T07:01:01.828Z,95002.53
2023-05-21T07:03:28.417Z,94998.84
2023-05-21T07:05:56.914Z,95004.09
2023-05-21T07:08:26.515Z,95001.59
2023-05-21T07:10:52.915Z,95002.06
2023-05-21T07:13:19.362Z,94996.91
2023-05-21T07:15:45.785Z,94998.69
2023-05-21T07:18:12.472Z,95010.75
2023-05-21T07:20:38.904Z,95007.09
2023-05-21T07:23:05.861Z,94997.34
2023-05-21T07:25:32.262Z,95000.81
2023-05-21T07:27:58.655Z,94994.63
2023-05-21T07:30:25.137Z,95004.53
2023-05-21T07:32:51.611Z,94996.44
2023-05-21T07:35:18.652Z,95005.81
2023-05-21T07:37:45.795Z,95003.13
2023-05-21T07:40:13.535Z,95004.25
2023-05-21T07:42:40.324Z,94996.16
2023-05-21T07:45:07.694Z,94999.00
2023-05-21T07:47:34.054Z,94994.63
2023-05-21T07:50:00.442Z,94994.50
2023-05-21T07:52:26.785Z,94991.59
2023-05-21T07:54:53.185Z,95000.50
2023-05-21T07:57:20.754Z,94993.38
2023-05-21T07:59:47.103Z,95004.00
2023-05-21T08:02:13.533Z,94999.28
2023-05-21T08:04:41.314Z,95003.56
2023-05-21T08:07:09.051Z,95003.19
2023-05-21T08:09:35.922Z,94998.53
2023-05-21T08:12:02.266Z,95014.66
2023-05-21T08:14:29.255Z,95013.94
2023-05-21T08:16:55.587Z,95011.81
2023-05-21T08:19:22.106Z,95015.97
2023-05-21T08:21:49.303Z,95011.53
2023-05-21T08:24:17.287Z,95012.28
2023-05-21T08:26:44.363Z,95017.59
2023-05-21T08:29:10.841Z,95022.28
2023-05-21T08:31:39.582Z,95019.44
2023-05-21T08:34:05.970Z,95024.53
2023-05-21T08:36:32.302Z,95025.13
2023-05-21T08:38:58.645Z,95023.44
2023-05-21T08:41:26.230Z,95019.63
2023-05-21T08:43:56.133Z,95018.50
2023-05-21T08:46:23.511Z,95025.41
2023-05-21T08:48:54.107Z,95022.16
2023-05-21T08:51:20.870Z,95011.50
2023-05-21T08:53:48.871Z,95016.41
2023-05-21T08:56:16.977Z,95020.94
2023-05-21T08:58:45.592Z,95018.56
2023-05-21T09:01:12.189Z,95014.47
2023-05-21T09:03:43.051Z,95013.88
2023-05-21T09:06:13.376Z,95022.66
2023-05-21T09:08:44.432Z,95010.16
2023-05-21T09:11:11.031Z,95015.66
2023-05-21T09:13:39.120Z,95007.78
2023-05-21T09:16:07.077Z,95009.59
2023-05-21T09:18:33.455Z,95014.13
2023-05-21T09:21:24.706Z,95014.66
2023-05-21T09:23:54.640Z,95013.28
2023-05-21T09:26:21.948Z,95009.66
2023-05-21T09:28:48.306Z,95016.97
2023-05-21T09:31:14.661Z,95007.63
2023-05-21T09:33:46.305Z,95005.28
2023-05-21T09:36:12.634Z,95019.28
2023-05-21T09:38:39.725Z,95005.41
2023-05-21T09:41:06.319Z,95003.63
2023-05-21T09:43:32.686Z,95001.66
2023-05-21T09:46:01.994Z,95002.19
2023-05-21T09:48:36.499Z,95004.19
2023-05-21T09:51:14.368Z,94996.28
2023-05-21T09:53:48.546Z,95004.25
2023-05-21T09:56:15.129Z,95001.06
2023-05-21T09:58:41.719Z,95004.63
2023-05-21T10:01:10.556Z,95003.06
2023-05-21T10:03:39.610Z,94999.88
2023-05-21T10:06:08.626Z,94998.59
2023-05-21T10:08:36.303Z,94989.94
2023-05-21T10:11:05.332Z,94989.50
2023-05-21T10:13:35.533Z,94995.47
2023-05-21T10:16:02.378Z,94995.06
2023-05-21T10:18:30.399Z,94999.81
2023-05-21T10:20:58.615Z,94994.53
2023-05-21T10:23:26.792Z,94999.13
2023-05-21T10:25:53.761Z,94995.59
2023-05-21T10:28:22.273Z,94989.28
2023-05-21T10:30:49.035Z,94992.88
2023-05-21T10:33:16.382Z,94981.06
2023-05-21T10:35:46.347Z,94980.63
2023-05-21T10:38:14.029Z,94979.78
2023-05-21T10:40:40.572Z,94976.28
2023-05-21T10:43:40.695Z,94978.78
2023-05-21T10:46:29.457Z,94972.97
2023-05-21T10:49:07.033Z,94971.41
2023-05-21T10:51:41.897Z,94977.22
2023-05-21T10:54:39.024Z,94973.72
2023-05-21T10:57:16.225Z,94979.22
2023-05-21T10:59:45.423Z,94974.19
2023-05-21T11:02:14.425Z,94972.81
2023-05-21T11:04:43.537Z,94984.84
2023-05-21T11:07:11.952Z,94984.34
2023-05-21T11:09:38.348Z,94973.50
2023-05-21T11:12:07.361Z,94973.13
2023-05-21T11:14:36.700Z,94965.00
2023-05-21T11:17:10.352Z,94968.03
2023-05-21T11:19:38.694Z,94965.41
2023-05-21T11:22:13.269Z,94955.81
2023-05-21T11:24:41.054Z,94960.91
2023-05-21T11:27:10.929Z,94966.78
2023-05-21T11:29:40.036Z,94966.59
2023-05-21T11:32:08.897Z,94967.03
2023-05-21T11:34:40.187Z,94962.78
2023-05-21T11:37:28.293Z,94956.19
2023-05-21T11:39:55.893Z,94958.41
2023-05-21T11:42:33.174Z,94956.56
2023-05-21T11:45:00.764Z,94958.81
2023-05-21T11:47:28.916Z,94954.41
2023-05-21T11:49:56.145Z,94950.81
2023-05-21T11:52:23.117Z,94955.03
2023-05-21T11:54:53.386Z,94949.66
2023-05-21T11:57:19.957Z,94951.69
2023-05-21T11:59:46.822Z,94953.75
2023-05-21T12:02:15.840Z,94951.19
2023-05-21T12:04:43.173Z,94945.59
2023-05-21T12:07:12.492Z,94938.97
2023-05-21T12:09:39.448Z,94940.91
2023-05-21T12:12:07.498Z,94943.88
2023-05-21T12:14:41.092Z,94950.59
2023-05-21T12:17:07.468Z,94942.81
2023-05-21T12:19:34.207Z,94943.72
2023-05-21T12:22:05.551Z,94942.13
2023-05-21T12:24:32.502Z,94932.94
2023-05-21T12:27:00.627Z,94946.16
2023-05-21T12:29:27.634Z,94940.88
2023-05-21T12:31:54.043Z,94946.84
2023-05-21T12:34:40.138Z,94939.13
2023-05-21T12:37:08.205Z,94935.19
2023-05-21T12:39:41.131Z,94940.53
2023-05-21T12:42:07.739Z,94941.25
2023-05-21T12:44:36.617Z,94938.22
2023-05-21T12:47:03.417Z,94938.06
2023-05-21T12:49:34.571Z,94938.22
2023-05-21T12:52:02.921Z,94933.94
2023-05-21T12:54:32.942Z,94926.91
2023-05-21T12:57:06.049Z,94930.91
2023-05-21T12:59:43.822Z,94932.69
2023-05-21T13:02:14.399Z,94933.50
2023-05-21T13:04:40.769Z,94927.88
2023-05-21T13:07:07.134Z,94925.88
2023-05-21T13:09:34.116Z,94930.91
2023-05-21T13:12:00.444Z,94928.69
2023-05-21T13:14:26.758Z,94923.72
2023-05-21T13:16:53.122Z,94935.28
2023-05-21T13:19:19.523Z,94925.44
2023-05-21T13:21:45.931Z,94927.03
2023-05-21T13:24:12.296Z,94922.53
2023-05-21T13:26:39.309Z,94912.50
2023-05-21T13:29:05.714Z,94909.56
2023-05-21T13:31:32.033Z,94918.75
2023-05-21T13:33:58.326Z,94913.72
2023-05-21T13:36:24.728Z,94909.63
2023-05-21T13:38:51.037Z,94903.63
2023-05-21T13:41:17.391Z,94908.19
2023-05-21T13:43:44.395Z,94907.44
2023-05-21T13:46:10.795Z,94901.38
2023-05-21T13:48:37.143Z,94906.16
2023-05-21T13:51:03.542Z,94909.53
2023-05-21T13:53:29.881Z,94910.19
2023-05-21T13:55:56.297Z,94905.06
2023-05-21T13:58:22.606Z,94912.34
2023-05-21T14:00:49.749Z,94914.75
2023-05-21T14:03:16.215Z,94920.09
2023-05-21T14:05:42.530Z,94919.41
2023-05-21T14:08:08.957Z,94912.63
2023-05-21T14:10:35.859Z,94904.16
2023-05-21T14:13:11.978Z,94910.00
2023-05-21T14:15:45.328Z,94916.03
2023-05-21T14:18:12.431Z,94916.38
2023-05-21T14:20:38.876Z,94907.97
2023-05-21T14:23:08.684Z,94910.72
2023-05-21T14:25:35.252Z,94912.25
2023-05-21T14:28:04.860Z,94911.59
2023-05-21T14:30:31.258Z,94910.66
2023-05-21T14:32:58.041Z,94906.47
2023-05-21T14:35:25.283Z,94908.00
2023-05-21T14:37:52.751Z,94908.44
2023-05-21T14:40:19.163Z,94906.69
2023-05-21T14:42:45.523Z,94900.19
2023-05-21T14:45:19.207Z,94898.94
2023-05-21T14:47:47.213Z,94894.13
2023-05-21T14:50:14.723Z,94896.38
2023-05-21T14:52:42.473Z,94891.03
2023-05-21T14:55:09.429Z,94892.59
2023-05-21T14:57:35.794Z,94889.81
2023-05-21T15:00:02.190Z,94892.94
2023-05-21T15:02:28.731Z,94896.75
2023-05-21T15:04:55.666Z,94887.75
2023-05-21T15:07:22.044Z,94888.72
2023-05-21T15:09:49.057Z,94887.59
2023-05-21T15:12:15.369Z,94893.91
2023-05-21T15:14:41.771Z,94889.16
2023-05-21T15:17:11.111Z,94892.09
2023-05-21T15:19:37.471Z,94896.88
2023-05-21T15:22:03.987Z,94890.31
2023-05-21T15:24:30.365Z,94893.44
2023-05-21T15:26:57.371Z,94885.75
2023-05-21T15:29:23.860Z,94883.06
2023-05-21T15:31:50.225Z,94891.16
2023-05-21T15:34:17.315Z,94894.47
2023-05-21T15:36:43.649Z,94886.38
2023-05-21T15:39:10.061Z,94885.88
2023-05-21T15:41:37.050Z,94890.78
2023-05-21T15:44:04.775Z,94890.75
2023-05-21T15:46:34.242Z,94885.31
2023-05-21T15:49:00.629Z,94885.22
2023-05-21T15:51:26.970Z,94886.78
2023-05-21T15:53:53.303Z,94884.50
2023-05-21T15:56:21.055Z,94886.13
2023-05-21T15:58:50.421Z,94872.53
2023-05-21T16:01:17.987Z,94873.75
2023-05-21T16:03:44.485Z,94875.34
2023-05-21T16:06:10.864Z,94874.59
2023-05-21T16:08:37.247Z,94874.13
2023-05-21T16:11:03.696Z,94878.72
2023-05-21T16:13:30.266Z,94878.72
2023-05-21T16:15:56.560Z,94875.94
2023-05-21T16:18:26.388Z,94875.59
2023-05-21T16:20:54.537Z,94882.00
2023-05-21T16:23:20.995Z,94874.78
2023-05-21T16:25:47.517Z,94873.59
2023-05-21T16:28:13.898Z,94863.22
2023-05-21T16:30:40.409Z,94868.53
2023-05-21T16:33:07.043Z,94870.13
2023-05-21T16:35:34.099Z,94870.06
2023-05-21T16:38:02.377Z,94868.88
2023-05-21T16:40:30.682Z,94867.75
2023-05-21T16:42:57.125Z,94866.91
2023-05-21T16:45:23.590Z,94874.47
2023-05-21T16:47:50.840Z,94875.72
2023-05-21T16:50:17.678Z,94878.09
2023-05-21T16:52:44.958Z,94874.91
2023-05-21T16:55:11.520Z,94878.91
2023-05-21T16:57:37.890Z,94874.97
2023-05-21T17:00:06.993Z,94874.97
2023-05-21T17:02:33.639Z,94868.63
2023-05-21T17:04:59.989Z,94867.03
2023-05-21T17:07:26.354Z,94865.69
2023-05-21T17:09:53.428Z,94855.72
2023-05-21T17:12:19.850Z,94856.88
2023-05-21T17:14:46.235Z,94858.44
2023-05-21T17:17:12.680Z,94857.72
2023-05-21T17:19:39.072Z,94860.53
2023-05-21T17:22:05.682Z,94861.56
2023-05-21T17:24:32.059Z,94863.00
2023-05-21T17:26:59.132Z,94864.56
2023-05-21T17:29:25.699Z,94876.25
2023-05-21T17:31:52.166Z,94873.16
2023-05-21T17:34:18.649Z,94872.69
2023-05-21T17:36:45.257Z,94877.06
2023-05-21T17:39:11.607Z,94873.78
2023-05-21T17:41:38.045Z,94875.31
2023-05-21T17:44:05.208Z,94886.72
2023-05-21T17:46:31.746Z,94888.63
2023-05-21T17:48:58.199Z,94884.59
2023-05-21T17:51:24.664Z,94889.25
2023-05-21T17:53:51.017Z,94888.34
2023-05-21T17:56:17.363Z,94897.31
2023-05-21T17:58:43.745Z,94897.59
2023-05-21T18:01:10.853Z,94897.81
2023-05-21T18:03:37.249Z,94894.84
2023-05-21T18:06:04.271Z,94904.94
2023-05-21T18:08:30.684Z,94909.53
2023-05-21T18:10:57.563Z,94904.13
2023-05-21T18:13:23.900Z,94908.28
2023-05-21T18:15:50.395Z,94907.31
2023-05-21T18:18:19.852Z,94914.25
2023-05-21T18:20:48.172Z,94911.19
2023-05-21T18:23:14.617Z,94909.72
2023-05-21T18:25:41.026Z,94906.38
2023-05-21T18:28:08.232Z,94904.44
2023-05-21T18:30:35.207Z,94909.19
2023-05-21T18:33:02.107Z,94905.69
2023-05-21T18:35:30.315Z,94911.66
2023-05-21T18:37:57.282Z,94913.63
2023-05-21T18:40:27.965Z,94921.91
2023-05-21T18:42:57.732Z,94915.31
2023-05-21T18:45:24.309Z,94920.53
2023-05-21T18:47:51.077Z,94914.63
2023-05-21T18:50:18.865Z,94920.84
2023-05-21T18:52:46.173Z,94925.59
2023-05-21T18:55:13.512Z,94928.44
2023-05-21T18:57:40.138Z,94917.97
2023-05-21T19:00:08.720Z,94931.03
2023-05-21T19:02:35.430Z,94936.06
2023-05-21T19:05:02.224Z,94934.09
2023-05-21T19:07:28.700Z,94947.53
2023-05-21T19:09:55.963Z,94947.16
2023-05-21T19:12:22.457Z,94941.44
2023-05-21T19:14:48.858Z,94942.69
2023-05-21T19:17:15.330Z,94952.72
2023-05-21T19:19:44.860Z,94941.81
2023-05-21T19:22:11.258Z,94943.22
2023-05-21T19:24:37.840Z,94950.38
2023-05-21T19:27:05.764Z,94957.13
2023-05-21T19:29:32.321Z,94957.59
2023-05-21T19:31:58.764Z,94969.88
2023-05-21T19:34:26.082Z,94969.66
2023-05-21T19:36:53.697Z,94964.75
2023-05-21T19:39:20.448Z,94973.00
2023-05-21T19:41:46.904Z,94964.34
2023-05-21T19:44:14.100Z,94975.19
2023-05-21T19:46:40.635Z,94971.88
2023-05-21T19:49:09.697Z,94976.31
2023-05-21T19:51:36.245Z,94972.31
2023-05-21T19:54:02.684Z,94976.41
2023-05-21T19:56:29.098Z,94975.78
2023-05-21T19:58:55.487Z,94979.22
2023-05-21T20:01:22.775Z,94982.25
2023-05-21T20:03:49.345Z,94977.22
2023-05-21T20:06:18.072Z,94980.03
2023-05-21T20:08:44.566Z,94979.53
2023-05-21T20:11:10.994Z,94984.97
2023-05-21T20:13:37.421Z,94987.19
2023-05-21T20:16:04.400Z,94991.28
2023-05-21T20:18:31.536Z,94986.38
2023-05-21T20:20:57.953Z,94985.97
2023-05-21T20:23:24.464Z,94993.72
2023-05-21T20:25:50.953Z,94994.75
2023-05-21T20:28:17.889Z,94997.06
2023-05-21T20:30:56.796Z,94993.13
2023-05-21T20:33:24.556Z,94996.56
2023-05-21T20:35:58.790Z,94994.47
2023-05-21T20:38:25.439Z,94999.22
2023-05-21T20:40:52.266Z,94993.00
2023-05-21T20:43:19.248Z,95001.22
2023-05-21T20:45:46.721Z,94985.66
2023-05-21T20:48:14.511Z,94994.69
2023-05-21T20:50:41.422Z,95003.41
2023-05-21T20:53:08.612Z,95005.53
2023-05-21T20:55:35.122Z,95005.06
2023-05-21T20:58:02.032Z,95005.72
2023-05-21T21:00:28.536Z,95011.97
2023-05-21T21:02:55.538Z,95005.22
2023-05-21T21:05:23.587Z,95007.47
2023-05-21T21:07:49.980Z,95006.47
2023-05-21T21:10:17.378Z,95011.81
2023-05-21T21:12:43.879Z,95009.72
2023-05-21T21:15:10.392Z,95018.72
2023-05-21T21:17:36.874Z,95018.44
2023-05-21T21:20:05.307Z,95019.09
2023-05-21T21:22:31.713Z,95020.38
2023-05-21T21:24:58.291Z,95021.03
2023-05-21T21:27:25.294Z,95025.69
2023-05-21T21:29:51.760Z,95022.00
2023-05-21T21:32:18.273Z,95019.28
2023-05-21T21:34:44.816Z,95022.00
2023-05-21T21:37:11.674Z,95020.09
2023-05-21T21:39:38.289Z,95019.91
2023-05-21T21:42:05.452Z,95026.00
2023-05-21T21:44:32.527Z,95031.00
2023-05-21T21:46:58.979Z,95032.75
2023-05-21T21:49:25.375Z,95032.56
2023-05-21T21:51:57.226Z,95036.09
2023-05-21T21:54:23.722Z,95036.75
2023-05-21T21:56:50.454Z,95033.53
2023-05-21T21:59:16.839Z,95033.19
2023-05-21T22:01:44.188Z,95038.28
2023-05-21T22:04:10.686Z,95040.47
2023-05-21T22:06:38.266Z,95045.75
2023-05-21T22:09:04.914Z,95052.19
2023-05-21T22:11:31.480Z,95056.50
2023-05-21T22:13:59.638Z,95057.44
2023-05-21T22:16:27.525Z,95055.00
2023-05-21T22:18:54.749Z,95046.13
2023-05-21T22:21:26.200Z,95050.63
2023-05-21T22:23:58.020Z,95047.09
2023-05-21T22:26:24.434Z,95055.06
2023-05-21T22:28:50.835Z,95053.59
2023-05-21T22:31:17.453Z,95064.59
2023-05-21T22:33:43.995Z,95056.41
2023-05-21T22:36:11.125Z,95050.88
2023-05-21T22:38:37.607Z,95058.72
2023-05-21T22:41:04.139Z,95057.22
2023-05-21T22:43:30.587Z,95056.78
2023-05-21T22:45:56.964Z,95050.16
2023-05-21T22:48:26.110Z,95058.59
2023-05-21T22:50:53.734Z,95054.69
2023-05-21T22:57:51.437Z,95056.16
2023-05-21T23:00:18.645Z,95064.59
2023-05-21T23:02:45.332Z,95067.25
2023-05-21T23:05:11.792Z,95053.75
2023-05-21T23:07:38.258Z,95058.88
2023-05-21T23:10:05.419Z,95056.97
2023-05-21T23:12:31.764Z,95059.69
2023-05-21T23:14:58.767Z,95057.59
2023-05-21T23:17:25.202Z,95056.63
2023-05-21T23:19:52.002Z,95060.63
2023-05-21T23:22:25.877Z,95061.97
2023-05-21T23:24:53.401Z,95059.97
2023-05-21T23:27:19.977Z,95052.13
2023-05-21T23:29:46.350Z,95055.38
2023-05-21T23:32:13.466Z,95056.09
2023-05-21T23:34:39.812Z,95057.53
2023-05-21T23:37:06.560Z,95043.22
2023-05-21T23:39:32.936Z,95043.53
2023-05-21T23:41:59.303Z,95056.00
2023-05-21T23:44:25.766Z,95053.88
2023-05-21T23:46:52.167Z,95053.38
2023-05-21T23:49:19.160Z,95054.50
2023-05-21T23:51:45.974Z,95056.22
2023-05-21T23:54:12.358Z,95054.81
2023-05-21T23:56:38.696Z,95051.19
2023-05-21T23:59:05.069Z,95049.47
